sensor_id;sensor_type;location;lat;lon;timestamp;P1;durP1;ratioP1;P2;durP2;ratioP2
10343;SDS011;5217;43.960;10.954;2023-05-19T00:01:27;1.60;;;1.50;;
10343;SDS011;5217;43.960;10.954;2023-05-19T00:03:57;1.48;;;1.38;;
10343;SDS011;5217;43.960;10.954;2023-05-19T00:06:28;1.90;;;1.50;;
10343;SDS011;5217;43.960;10.954;2023-05-19T00:08:58;1.85;;;1.45;;
10343;SDS011;5217;43.960;10.954;2023-05-19T00:11:30;1.55;;;1.45;;
10343;SDS011;5217;43.960;10.954;2023-05-19T00:14:01;1.60;;;1.50;;
10343;SDS011;5217;43.960;10.954;2023-05-19T00:16:31;1.83;;;1.50;;
10343;SDS011;5217;43.960;10.954;2023-05-19T00:19:02;2.05;;;1.48;;
10343;SDS011;5217;43.960;10.954;2023-05-19T00:21:32;2.95;;;1.50;;
10343;SDS011;5217;43.960;10.954;2023-05-19T00:24:00;1.60;;;1.50;;
10343;SDS011;5217;43.960;10.954;2023-05-19T00:26:30;1.98;;;1.70;;
10343;SDS011;5217;43.960;10.954;2023-05-19T00:28:59;2.20;;;1.85;;
10343;SDS011;5217;43.960;10.954;2023-05-19T00:31:27;1.80;;;1.50;;
10343;SDS011;5217;43.960;10.954;2023-05-19T00:33:57;1.63;;;1.50;;
10343;SDS011;5217;43.960;10.954;2023-05-19T00:36:25;1.58;;;1.48;;
10343;SDS011;5217;43.960;10.954;2023-05-19T00:38:54;3.43;;;1.50;;
10343;SDS011;5217;43.960;10.954;2023-05-19T00:41:22;1.77;;;1.67;;
10343;SDS011;5217;43.960;10.954;2023-05-19T00:43:53;2.33;;;1.77;;
10343;SDS011;5217;43.960;10.954;2023-05-19T00:46:22;1.92;;;1.73;;
10343;SDS011;5217;43.960;10.954;2023-05-19T00:48:50;2.07;;;1.60;;
10343;SDS011;5217;43.960;10.954;2023-05-19T00:51:19;2.63;;;1.93;;
10343;SDS011;5217;43.960;10.954;2023-05-19T00:53:48;2.10;;;1.70;;
10343;SDS011;5217;43.960;10.954;2023-05-19T00:56:17;3.17;;;2.00;;
10343;SDS011;5217;43.960;10.954;2023-05-19T00:58:47;1.60;;;1.50;;
10343;SDS011;5217;43.960;10.954;2023-05-19T01:01:19;2.53;;;2.10;;
10343;SDS011;5217;43.960;10.954;2023-05-19T01:03:48;1.70;;;1.60;;
10343;SDS011;5217;43.960;10.954;2023-05-19T01:06:16;1.90;;;1.80;;
10343;SDS011;5217;43.960;10.954;2023-05-19T01:08:46;2.87;;;2.07;;
10343;SDS011;5217;43.960;10.954;2023-05-19T01:11:14;3.08;;;2.03;;
10343;SDS011;5217;43.960;10.954;2023-05-19T01:13:43;2.53;;;1.80;;
10343;SDS011;5217;43.960;10.954;2023-05-19T01:16:13;1.87;;;1.70;;
10343;SDS011;5217;43.960;10.954;2023-05-19T01:18:50;1.80;;;1.70;;
10343;SDS011;5217;43.960;10.954;2023-05-19T01:21:28;1.70;;;1.60;;
10343;SDS011;5217;43.960;10.954;2023-05-19T01:24:19;1.92;;;1.73;;
10343;SDS011;5217;43.960;10.954;2023-05-19T01:27:03;1.73;;;1.60;;
10343;SDS011;5217;43.960;10.954;2023-05-19T01:32:48;1.63;;;1.53;;
10343;SDS011;5217;43.960;10.954;2023-05-19T01:35:19;1.83;;;1.63;;
10343;SDS011;5217;43.960;10.954;2023-05-19T01:37:51;1.90;;;1.80;;
10343;SDS011;5217;43.960;10.954;2023-05-19T01:40:22;2.17;;;1.97;;
10343;SDS011;5217;43.960;10.954;2023-05-19T01:42:52;2.07;;;1.77;;
10343;SDS011;5217;43.960;10.954;2023-05-19T01:45:24;2.47;;;1.83;;
10343;SDS011;5217;43.960;10.954;2023-05-19T01:47:55;1.75;;;1.65;;
10343;SDS011;5217;43.960;10.954;2023-05-19T01:50:26;2.33;;;1.87;;
10343;SDS011;5217;43.960;10.954;2023-05-19T01:52:55;1.77;;;1.67;;
10343;SDS011;5217;43.960;10.954;2023-05-19T01:55:24;2.03;;;1.73;;
10343;SDS011;5217;43.960;10.954;2023-05-19T01:57:56;1.80;;;1.70;;
10343;SDS011;5217;43.960;10.954;2023-05-19T02:00:36;1.60;;;1.50;;
10343;SDS011;5217;43.960;10.954;2023-05-19T02:03:15;1.73;;;1.60;;
10343;SDS011;5217;43.960;10.954;2023-05-19T02:05:51;1.73;;;1.60;;
10343;SDS011;5217;43.960;10.954;2023-05-19T02:08:28;3.73;;;1.60;;
10343;SDS011;5217;43.960;10.954;2023-05-19T02:11:02;4.40;;;2.17;;
10343;SDS011;5217;43.960;10.954;2023-05-19T02:13:35;2.27;;;1.90;;
10343;SDS011;5217;43.960;10.954;2023-05-19T02:16:10;1.80;;;1.70;;
10343;SDS011;5217;43.960;10.954;2023-05-19T02:18:39;1.93;;;1.73;;
10343;SDS011;5217;43.960;10.954;2023-05-19T02:21:11;1.60;;;1.50;;
10343;SDS011;5217;43.960;10.954;2023-05-19T02:23:39;1.93;;;1.70;;
10343;SDS011;5217;43.960;10.954;2023-05-19T02:26:08;1.70;;;1.60;;
10343;SDS011;5217;43.960;10.954;2023-05-19T02:28:36;2.07;;;1.70;;
10343;SDS011;5217;43.960;10.954;2023-05-19T02:31:04;2.80;;;2.00;;
10343;SDS011;5217;43.960;10.954;2023-05-19T02:33:38;2.37;;;2.00;;
10343;SDS011;5217;43.960;10.954;2023-05-19T02:36:06;2.37;;;1.83;;
10343;SDS011;5217;43.960;10.954;2023-05-19T02:38:35;2.03;;;1.83;;
10343;SDS011;5217;43.960;10.954;2023-05-19T02:41:03;2.00;;;1.90;;
10343;SDS011;5217;43.960;10.954;2023-05-19T02:43:32;2.20;;;2.00;;
10343;SDS011;5217;43.960;10.954;2023-05-19T02:46:00;2.27;;;2.07;;
10343;SDS011;5217;43.960;10.954;2023-05-19T02:48:29;2.00;;;1.80;;
10343;SDS011;5217;43.960;10.954;2023-05-19T02:50:59;2.93;;;1.90;;
10343;SDS011;5217;43.960;10.954;2023-05-19T02:53:27;2.10;;;1.90;;
10343;SDS011;5217;43.960;10.954;2023-05-19T02:55:56;2.13;;;2.00;;
10343;SDS011;5217;43.960;10.954;2023-05-19T02:58:25;2.10;;;1.90;;
10343;SDS011;5217;43.960;10.954;2023-05-19T03:00:53;1.70;;;1.60;;
10343;SDS011;5217;43.960;10.954;2023-05-19T03:03:22;2.80;;;2.13;;
10343;SDS011;5217;43.960;10.954;2023-05-19T03:05:51;2.27;;;1.80;;
10343;SDS011;5217;43.960;10.954;2023-05-19T03:08:21;2.53;;;1.97;;
10343;SDS011;5217;43.960;10.954;2023-05-19T03:10:49;2.40;;;1.87;;
10343;SDS011;5217;43.960;10.954;2023-05-19T03:13:18;2.20;;;2.10;;
10343;SDS011;5217;43.960;10.954;2023-05-19T03:15:46;2.10;;;2.00;;
10343;SDS011;5217;43.960;10.954;2023-05-19T03:18:16;2.23;;;2.03;;
10343;SDS011;5217;43.960;10.954;2023-05-19T03:20:45;2.10;;;1.90;;
10343;SDS011;5217;43.960;10.954;2023-05-19T03:23:13;2.33;;;2.13;;
10343;SDS011;5217;43.960;10.954;2023-05-19T03:25:43;2.17;;;2.00;;
10343;SDS011;5217;43.960;10.954;2023-05-19T03:28:11;1.80;;;1.70;;
10343;SDS011;5217;43.960;10.954;2023-05-19T03:30:39;2.00;;;1.90;;
10343;SDS011;5217;43.960;10.954;2023-05-19T03:33:08;2.13;;;2.03;;
10343;SDS011;5217;43.960;10.954;2023-05-19T03:35:37;2.27;;;2.07;;
10343;SDS011;5217;43.960;10.954;2023-05-19T03:38:05;2.20;;;2.00;;
10343;SDS011;5217;43.960;10.954;2023-05-19T03:40:33;2.27;;;2.07;;
10343;SDS011;5217;43.960;10.954;2023-05-19T03:43:03;2.27;;;2.07;;
10343;SDS011;5217;43.960;10.954;2023-05-19T03:45:33;2.03;;;1.90;;
10343;SDS011;5217;43.960;10.954;2023-05-19T03:48:01;2.13;;;2.03;;
10343;SDS011;5217;43.960;10.954;2023-05-19T03:50:30;2.00;;;1.90;;
10343;SDS011;5217;43.960;10.954;2023-05-19T03:52:59;2.57;;;2.10;;
10343;SDS011;5217;43.960;10.954;2023-05-19T03:55:28;2.30;;;2.10;;
10343;SDS011;5217;43.960;10.954;2023-05-19T03:57:56;2.13;;;1.90;;
10343;SDS011;5217;43.960;10.954;2023-05-19T04:00:26;2.53;;;2.00;;
10343;SDS011;5217;43.960;10.954;2023-05-19T04:02:55;2.27;;;2.07;;
10343;SDS011;5217;43.960;10.954;2023-05-19T04:05:23;2.20;;;2.00;;
10343;SDS011;5217;43.960;10.954;2023-05-19T04:07:52;2.30;;;2.20;;
10343;SDS011;5217;43.960;10.954;2023-05-19T04:10:20;2.87;;;2.03;;
10343;SDS011;5217;43.960;10.954;2023-05-19T04:12:49;2.27;;;2.10;;
10343;SDS011;5217;43.960;10.954;2023-05-19T04:15:17;2.60;;;2.30;;
10343;SDS011;5217;43.960;10.954;2023-05-19T04:17:48;1.80;;;1.70;;
10343;SDS011;5217;43.960;10.954;2023-05-19T04:20:17;2.00;;;1.80;;
10343;SDS011;5217;43.960;10.954;2023-05-19T04:22:45;2.67;;;2.20;;
10343;SDS011;5217;43.960;10.954;2023-05-19T04:25:14;2.30;;;2.10;;
10343;SDS011;5217;43.960;10.954;2023-05-19T04:27:42;3.73;;;2.30;;
10343;SDS011;5217;43.960;10.954;2023-05-19T04:30:11;2.13;;;2.00;;
10343;SDS011;5217;43.960;10.954;2023-05-19T04:32:44;2.00;;;1.90;;
10343;SDS011;5217;43.960;10.954;2023-05-19T04:35:14;4.10;;;2.43;;
10343;SDS011;5217;43.960;10.954;2023-05-19T04:37:43;1.83;;;1.73;;
10343;SDS011;5217;43.960;10.954;2023-05-19T04:40:12;2.30;;;2.10;;
10343;SDS011;5217;43.960;10.954;2023-05-19T04:42:41;2.30;;;2.10;;
10343;SDS011;5217;43.960;10.954;2023-05-19T04:45:11;2.17;;;2.00;;
10343;SDS011;5217;43.960;10.954;2023-05-19T04:47:40;2.80;;;2.07;;
10343;SDS011;5217;43.960;10.954;2023-05-19T04:50:09;2.17;;;2.07;;
10343;SDS011;5217;43.960;10.954;2023-05-19T04:52:39;2.10;;;2.00;;
10343;SDS011;5217;43.960;10.954;2023-05-19T04:55:11;2.40;;;2.20;;
10343;SDS011;5217;43.960;10.954;2023-05-19T04:57:39;2.30;;;2.10;;
10343;SDS011;5217;43.960;10.954;2023-05-19T05:00:08;2.10;;;1.90;;
10343;SDS011;5217;43.960;10.954;2023-05-19T05:02:40;2.57;;;2.20;;
10343;SDS011;5217;43.960;10.954;2023-05-19T05:05:09;2.10;;;2.00;;
10343;SDS011;5217;43.960;10.954;2023-05-19T05:07:37;2.53;;;2.33;;
10343;SDS011;5217;43.960;10.954;2023-05-19T05:10:08;2.40;;;2.20;;
10343;SDS011;5217;43.960;10.954;2023-05-19T05:12:37;2.80;;;2.60;;
10343;SDS011;5217;43.960;10.954;2023-05-19T05:15:06;2.47;;;2.27;;
10343;SDS011;5217;43.960;10.954;2023-05-19T05:17:36;2.47;;;2.27;;
10343;SDS011;5217;43.960;10.954;2023-05-19T05:20:05;2.33;;;2.13;;
10343;SDS011;5217;43.960;10.954;2023-05-19T05:22:35;2.97;;;2.20;;
10343;SDS011;5217;43.960;10.954;2023-05-19T05:25:07;3.23;;;2.40;;
10343;SDS011;5217;43.960;10.954;2023-05-19T05:27:37;2.30;;;2.10;;
10343;SDS011;5217;43.960;10.954;2023-05-19T05:30:06;2.67;;;2.10;;
10343;SDS011;5217;43.960;10.954;2023-05-19T05:32:35;3.03;;;2.40;;
10343;SDS011;5217;43.960;10.954;2023-05-19T05:35:05;2.27;;;2.07;;
10343;SDS011;5217;43.960;10.954;2023-05-19T05:37:34;2.80;;;2.40;;
10343;SDS011;5217;43.960;10.954;2023-05-19T05:40:02;2.73;;;2.43;;
10343;SDS011;5217;43.960;10.954;2023-05-19T05:42:33;2.50;;;2.30;;
10343;SDS011;5217;43.960;10.954;2023-05-19T05:45:02;2.73;;;2.50;;
10343;SDS011;5217;43.960;10.954;2023-05-19T05:47:32;2.60;;;2.30;;
10343;SDS011;5217;43.960;10.954;2023-05-19T05:50:03;2.20;;;2.07;;
10343;SDS011;5217;43.960;10.954;2023-05-19T05:52:33;2.57;;;2.33;;
10343;SDS011;5217;43.960;10.954;2023-05-19T05:55:04;2.40;;;2.20;;
10343;SDS011;5217;43.960;10.954;2023-05-19T05:57:35;2.30;;;2.10;;
10343;SDS011;5217;43.960;10.954;2023-05-19T06:00:04;2.10;;;2.00;;
10343;SDS011;5217;43.960;10.954;2023-05-19T06:02:35;2.60;;;2.40;;
10343;SDS011;5217;43.960;10.954;2023-05-19T06:05:04;2.30;;;2.10;;
10343;SDS011;5217;43.960;10.954;2023-05-19T06:07:33;2.50;;;2.03;;
10343;SDS011;5217;43.960;10.954;2023-05-19T06:10:03;2.40;;;2.20;;
10343;SDS011;5217;43.960;10.954;2023-05-19T06:12:34;2.55;;;2.17;;
10343;SDS011;5217;43.960;10.954;2023-05-19T06:15:05;2.20;;;2.00;;
10343;SDS011;5217;43.960;10.954;2023-05-19T06:17:34;2.23;;;1.80;;
10343;SDS011;5217;43.960;10.954;2023-05-19T06:20:03;2.58;;;2.38;;
10343;SDS011;5217;43.960;10.954;2023-05-19T06:22:34;2.53;;;2.33;;
10343;SDS011;5217;43.960;10.954;2023-05-19T06:25:02;4.23;;;2.50;;
10343;SDS011;5217;43.960;10.954;2023-05-19T06:27:31;3.03;;;2.80;;
10343;SDS011;5217;43.960;10.954;2023-05-19T06:30:02;3.20;;;2.90;;
10343;SDS011;5217;43.960;10.954;2023-05-19T06:32:31;3.00;;;2.70;;
10343;SDS011;5217;43.960;10.954;2023-05-19T06:35:00;2.43;;;2.23;;
10343;SDS011;5217;43.960;10.954;2023-05-19T06:37:29;3.13;;;2.27;;
10343;SDS011;5217;43.960;10.954;2023-05-19T06:39:57;3.20;;;2.60;;
10343;SDS011;5217;43.960;10.954;2023-05-19T06:42:25;3.10;;;2.67;;
10343;SDS011;5217;43.960;10.954;2023-05-19T06:44:54;3.05;;;2.80;;
10343;SDS011;5217;43.960;10.954;2023-05-19T06:47:24;2.87;;;2.67;;
10343;SDS011;5217;43.960;10.954;2023-05-19T06:49:52;3.17;;;2.83;;
10343;SDS011;5217;43.960;10.954;2023-05-19T06:52:22;3.33;;;2.93;;
10343;SDS011;5217;43.960;10.954;2023-05-19T06:54:51;3.10;;;2.90;;
10343;SDS011;5217;43.960;10.954;2023-05-19T06:57:19;2.95;;;2.70;;
10343;SDS011;5217;43.960;10.954;2023-05-19T06:59:48;2.73;;;2.53;;
10343;SDS011;5217;43.960;10.954;2023-05-19T07:02:16;2.77;;;2.47;;
10343;SDS011;5217;43.960;10.954;2023-05-19T07:04:46;2.90;;;2.30;;
10343;SDS011;5217;43.960;10.954;2023-05-19T07:07:16;2.60;;;2.40;;
10343;SDS011;5217;43.960;10.954;2023-05-19T07:09:45;2.57;;;2.30;;
10343;SDS011;5217;43.960;10.954;2023-05-19T07:12:13;2.40;;;2.20;;
10343;SDS011;5217;43.960;10.954;2023-05-19T07:14:42;2.40;;;2.22;;
10343;SDS011;5217;43.960;10.954;2023-05-19T07:17:10;3.17;;;2.40;;
10343;SDS011;5217;43.960;10.954;2023-05-19T07:19:40;2.67;;;2.45;;
10343;SDS011;5217;43.960;10.954;2023-05-19T07:22:09;2.80;;;2.30;;
10343;SDS011;5217;43.960;10.954;2023-05-19T07:24:38;2.55;;;2.35;;
10343;SDS011;5217;43.960;10.954;2023-05-19T07:27:07;2.50;;;2.30;;
10343;SDS011;5217;43.960;10.954;2023-05-19T07:29:36;2.50;;;2.30;;
10343;SDS011;5217;43.960;10.954;2023-05-19T07:32:05;2.53;;;2.33;;
10343;SDS011;5217;43.960;10.954;2023-05-19T07:34:34;2.67;;;2.47;;
10343;SDS011;5217;43.960;10.954;2023-05-19T07:37:03;2.30;;;2.10;;
10343;SDS011;5217;43.960;10.954;2023-05-19T07:39:34;2.70;;;2.47;;
10343;SDS011;5217;43.960;10.954;2023-05-19T07:42:02;3.10;;;2.60;;
10343;SDS011;5217;43.960;10.954;2023-05-19T07:44:31;3.10;;;2.50;;
10343;SDS011;5217;43.960;10.954;2023-05-19T07:47:00;2.83;;;2.55;;
10343;SDS011;5217;43.960;10.954;2023-05-19T07:49:28;2.83;;;2.60;;
10343;SDS011;5217;43.960;10.954;2023-05-19T07:51:57;2.70;;;2.50;;
10343;SDS011;5217;43.960;10.954;2023-05-19T07:54:25;2.80;;;2.60;;
10343;SDS011;5217;43.960;10.954;2023-05-19T07:56:55;2.67;;;2.47;;
10343;SDS011;5217;43.960;10.954;2023-05-19T07:59:24;4.30;;;3.73;;
10343;SDS011;5217;43.960;10.954;2023-05-19T08:01:52;4.10;;;3.60;;
10343;SDS011;5217;43.960;10.954;2023-05-19T08:04:21;3.97;;;3.33;;
10343;SDS011;5217;43.960;10.954;2023-05-19T08:06:49;4.28;;;3.15;;
10343;SDS011;5217;43.960;10.954;2023-05-19T08:09:18;3.10;;;2.90;;
10343;SDS011;5217;43.960;10.954;2023-05-19T08:11:47;4.20;;;2.80;;
10343;SDS011;5217;43.960;10.954;2023-05-19T08:14:17;3.70;;;3.40;;
10343;SDS011;5217;43.960;10.954;2023-05-19T08:16:48;4.53;;;4.22;;
10343;SDS011;5217;43.960;10.954;2023-05-19T08:19:17;4.43;;;4.03;;
10343;SDS011;5217;43.960;10.954;2023-05-19T08:21:45;3.50;;;3.20;;
10343;SDS011;5217;43.960;10.954;2023-05-19T08:24:15;3.72;;;3.40;;
10343;SDS011;5217;43.960;10.954;2023-05-19T08:26:43;3.63;;;3.33;;
10343;SDS011;5217;43.960;10.954;2023-05-19T08:29:11;3.75;;;3.08;;
10343;SDS011;5217;43.960;10.954;2023-05-19T08:31:41;2.80;;;2.58;;
10343;SDS011;5217;43.960;10.954;2023-05-19T08:34:10;3.03;;;2.72;;
10343;SDS011;5217;43.960;10.954;2023-05-19T08:36:39;3.00;;;2.70;;
10343;SDS011;5217;43.960;10.954;2023-05-19T08:39:07;3.17;;;2.80;;
10343;SDS011;5217;43.960;10.954;2023-05-19T08:41:36;3.72;;;3.00;;
10343;SDS011;5217;43.960;10.954;2023-05-19T08:44:04;3.47;;;3.17;;
10343;SDS011;5217;43.960;10.954;2023-05-19T08:46:33;3.63;;;2.85;;
10343;SDS011;5217;43.960;10.954;2023-05-19T08:49:11;3.40;;;3.10;;
10343;SDS011;5217;43.960;10.954;2023-05-19T08:51:43;5.47;;;3.20;;
10343;SDS011;5217;43.960;10.954;2023-05-19T08:54:20;3.23;;;2.90;;
10343;SDS011;5217;43.960;10.954;2023-05-19T08:56:59;3.22;;;2.92;;
10343;SDS011;5217;43.960;10.954;2023-05-19T08:59:28;3.53;;;3.13;;
10343;SDS011;5217;43.960;10.954;2023-05-19T09:01:57;4.68;;;3.22;;
10343;SDS011;5217;43.960;10.954;2023-05-19T09:04:28;3.92;;;3.22;;
10343;SDS011;5217;43.960;10.954;2023-05-19T09:06:57;3.33;;;3.03;;
10343;SDS011;5217;43.960;10.954;2023-05-19T09:09:29;3.10;;;2.80;;
10343;SDS011;5217;43.960;10.954;2023-05-19T09:11:58;2.70;;;2.50;;
10343;SDS011;5217;43.960;10.954;2023-05-19T09:14:26;2.97;;;2.70;;
10343;SDS011;5217;43.960;10.954;2023-05-19T09:16:56;2.38;;;2.17;;
10343;SDS011;5217;43.960;10.954;2023-05-19T09:19:25;2.33;;;2.13;;
10343;SDS011;5217;43.960;10.954;2023-05-19T09:21:57;1.80;;;1.70;;
10343;SDS011;5217;43.960;10.954;2023-05-19T09:24:26;1.60;;;1.50;;
10343;SDS011;5217;43.960;10.954;2023-05-19T09:26:55;1.70;;;1.60;;
10343;SDS011;5217;43.960;10.954;2023-05-19T09:29:25;1.40;;;1.30;;
10343;SDS011;5217;43.960;10.954;2023-05-19T09:31:54;1.30;;;1.20;;
10343;SDS011;5217;43.960;10.954;2023-05-19T09:34:26;1.35;;;1.25;;
10343;SDS011;5217;43.960;10.954;2023-05-19T09:36:56;1.70;;;1.23;;
10343;SDS011;5217;43.960;10.954;2023-05-19T09:39:25;0.82;;;0.82;;
10343;SDS011;5217;43.960;10.954;2023-05-19T09:41:54;0.93;;;0.93;;
10343;SDS011;5217;43.960;10.954;2023-05-19T09:44:24;1.75;;;1.00;;
10343;SDS011;5217;43.960;10.954;2023-05-19T09:46:55;1.00;;;1.00;;
10343;SDS011;5217;43.960;10.954;2023-05-19T09:49:25;1.40;;;1.30;;
10343;SDS011;5217;43.960;10.954;2023-05-19T09:51:57;1.40;;;1.30;;
10343;SDS011;5217;43.960;10.954;2023-05-19T09:54:28;1.60;;;1.50;;
10343;SDS011;5217;43.960;10.954;2023-05-19T09:56:58;1.90;;;1.80;;
10343;SDS011;5217;43.960;10.954;2023-05-19T09:59:29;3.47;;;1.90;;
10343;SDS011;5217;43.960;10.954;2023-05-19T10:01:59;1.90;;;1.80;;
10343;SDS011;5217;43.960;10.954;2023-05-19T10:04:29;1.83;;;1.70;;
10343;SDS011;5217;43.960;10.954;2023-05-19T10:07:11;1.40;;;1.30;;
10343;SDS011;5217;43.960;10.954;2023-05-19T10:09:43;1.27;;;1.27;;
10343;SDS011;5217;43.960;10.954;2023-05-19T10:12:31;1.10;;;1.10;;
10343;SDS011;5217;43.960;10.954;2023-05-19T10:15:00;0.90;;;0.90;;
10343;SDS011;5217;43.960;10.954;2023-05-19T10:17:29;0.90;;;0.90;;
10343;SDS011;5217;43.960;10.954;2023-05-19T10:19:58;0.80;;;0.80;;
10343;SDS011;5217;43.960;10.954;2023-05-19T10:22:29;0.80;;;0.80;;
10343;SDS011;5217;43.960;10.954;2023-05-19T10:25:07;0.88;;;0.88;;
10343;SDS011;5217;43.960;10.954;2023-05-19T10:27:45;1.95;;;0.90;;
10343;SDS011;5217;43.960;10.954;2023-05-19T10:30:19;0.82;;;0.82;;
10343;SDS011;5217;43.960;10.954;2023-05-19T10:32:53;1.70;;;1.20;;
10343;SDS011;5217;43.960;10.954;2023-05-19T10:35:48;1.38;;;1.27;;
10343;SDS011;5217;43.960;10.954;2023-05-19T10:38:40;1.23;;;1.02;;
10343;SDS011;5217;43.960;10.954;2023-05-19T10:41:15;1.20;;;1.20;;
10343;SDS011;5217;43.960;10.954;2023-05-19T10:43:53;1.30;;;1.20;;
10343;SDS011;5217;43.960;10.954;2023-05-19T10:46:30;1.02;;;1.02;;
10343;SDS011;5217;43.960;10.954;2023-05-19T10:48:58;1.45;;;1.35;;
10343;SDS011;5217;43.960;10.954;2023-05-19T10:51:27;2.17;;;1.38;;
10343;SDS011;5217;43.960;10.954;2023-05-19T10:54:01;1.92;;;1.40;;
10343;SDS011;5217;43.960;10.954;2023-05-19T10:56:33;1.52;;;1.42;;
10343;SDS011;5217;43.960;10.954;2023-05-19T10:59:07;1.58;;;1.48;;
10343;SDS011;5217;43.960;10.954;2023-05-19T11:01:59;1.35;;;1.20;;
10343;SDS011;5217;43.960;10.954;2023-05-19T11:04:46;1.50;;;1.25;;
10343;SDS011;5217;43.960;10.954;2023-05-19T11:07:17;1.40;;;1.30;;
10343;SDS011;5217;43.960;10.954;2023-05-19T11:09:49;1.45;;;1.35;;
10343;SDS011;5217;43.960;10.954;2023-05-19T11:12:19;1.75;;;1.35;;
10343;SDS011;5217;43.960;10.954;2023-05-19T11:14:51;1.13;;;1.13;;
10343;SDS011;5217;43.960;10.954;2023-05-19T11:17:20;1.60;;;1.50;;
10343;SDS011;5217;43.960;10.954;2023-05-19T11:19:51;1.83;;;1.20;;
10343;SDS011;5217;43.960;10.954;2023-05-19T11:22:21;1.98;;;1.40;;
10343;SDS011;5217;43.960;10.954;2023-05-19T11:24:54;1.23;;;1.13;;
10343;SDS011;5217;43.960;10.954;2023-05-19T11:27:23;1.92;;;1.30;;
10343;SDS011;5217;43.960;10.954;2023-05-19T11:29:54;3.42;;;1.40;;
10343;SDS011;5217;43.960;10.954;2023-05-19T11:32:25;1.75;;;1.23;;
10343;SDS011;5217;43.960;10.954;2023-05-19T11:34:55;1.30;;;1.20;;
10343;SDS011;5217;43.960;10.954;2023-05-19T11:37:24;2.00;;;1.15;;
10343;SDS011;5217;43.960;10.954;2023-05-19T11:39:55;1.30;;;1.20;;
10343;SDS011;5217;43.960;10.954;2023-05-19T11:42:27;2.00;;;1.80;;
10343;SDS011;5217;43.960;10.954;2023-05-19T11:44:56;2.30;;;2.00;;
10343;SDS011;5217;43.960;10.954;2023-05-19T11:47:24;2.10;;;1.90;;
10343;SDS011;5217;43.960;10.954;2023-05-19T11:49:59;1.60;;;1.50;;
10343;SDS011;5217;43.960;10.954;2023-05-19T11:52:28;1.83;;;1.45;;
10343;SDS011;5217;43.960;10.954;2023-05-19T11:54:59;1.20;;;1.20;;
10343;SDS011;5217;43.960;10.954;2023-05-19T11:57:28;1.50;;;1.40;;
10343;SDS011;5217;43.960;10.954;2023-05-19T12:00:00;2.08;;;1.20;;
10343;SDS011;5217;43.960;10.954;2023-05-19T12:02:34;1.85;;;1.13;;
10343;SDS011;5217;43.960;10.954;2023-05-19T12:05:03;1.75;;;1.30;;
10343;SDS011;5217;43.960;10.954;2023-05-19T12:07:32;1.05;;;1.05;;
10343;SDS011;5217;43.960;10.954;2023-05-19T12:10:02;1.45;;;1.10;;
10343;SDS011;5217;43.960;10.954;2023-05-19T12:12:32;1.60;;;1.50;;
10343;SDS011;5217;43.960;10.954;2023-05-19T12:15:02;1.85;;;1.75;;
10343;SDS011;5217;43.960;10.954;2023-05-19T12:17:31;2.63;;;2.38;;
10343;SDS011;5217;43.960;10.954;2023-05-19T12:20:00;3.15;;;2.85;;
10343;SDS011;5217;43.960;10.954;2023-05-19T12:22:30;2.95;;;2.63;;
10343;SDS011;5217;43.960;10.954;2023-05-19T12:24:59;2.70;;;2.50;;
10343;SDS011;5217;43.960;10.954;2023-05-19T12:27:29;3.30;;;3.00;;
10343;SDS011;5217;43.960;10.954;2023-05-19T12:30:03;3.45;;;3.15;;
10343;SDS011;5217;43.960;10.954;2023-05-19T12:32:33;3.50;;;3.20;;
10343;SDS011;5217;43.960;10.954;2023-05-19T12:35:03;4.78;;;2.60;;
10343;SDS011;5217;43.960;10.954;2023-05-19T12:37:32;2.63;;;2.28;;
10343;SDS011;5217;43.960;10.954;2023-05-19T12:40:02;2.25;;;2.05;;
10343;SDS011;5217;43.960;10.954;2023-05-19T12:42:33;1.90;;;1.70;;
10343;SDS011;5217;43.960;10.954;2023-05-19T12:45:02;2.38;;;1.52;;
10343;SDS011;5217;43.960;10.954;2023-05-19T12:47:32;1.63;;;1.35;;
10343;SDS011;5217;43.960;10.954;2023-05-19T12:50:02;2.03;;;1.40;;
10343;SDS011;5217;43.960;10.954;2023-05-19T12:52:34;2.10;;;1.52;;
10343;SDS011;5217;43.960;10.954;2023-05-19T12:55:09;1.70;;;1.38;;
10343;SDS011;5217;43.960;10.954;2023-05-19T12:57:39;1.95;;;1.52;;
10343;SDS011;5217;43.960;10.954;2023-05-19T13:00:12;1.80;;;1.40;;
10343;SDS011;5217;43.960;10.954;2023-05-19T13:02:53;1.77;;;1.27;;
10343;SDS011;5217;43.960;10.954;2023-05-19T13:05:24;1.52;;;1.38;;
10343;SDS011;5217;43.960;10.954;2023-05-19T13:07:54;2.17;;;1.27;;
10343;SDS011;5217;43.960;10.954;2023-05-19T13:10:24;2.65;;;1.27;;
10343;SDS011;5217;43.960;10.954;2023-05-19T13:12:55;1.10;;;1.10;;
10343;SDS011;5217;43.960;10.954;2023-05-19T13:15:24;2.88;;;1.20;;
10343;SDS011;5217;43.960;10.954;2023-05-19T13:17:54;1.25;;;1.15;;
10343;SDS011;5217;43.960;10.954;2023-05-19T13:20:23;1.40;;;1.25;;
10343;SDS011;5217;43.960;10.954;2023-05-19T13:22:54;1.70;;;1.20;;
10343;SDS011;5217;43.960;10.954;2023-05-19T13:25:22;1.25;;;1.00;;
10343;SDS011;5217;43.960;10.954;2023-05-19T13:27:51;1.20;;;1.10;;
10343;SDS011;5217;43.960;10.954;2023-05-19T13:30:23;1.30;;;1.20;;
10343;SDS011;5217;43.960;10.954;2023-05-19T13:32:52;1.00;;;1.00;;
10343;SDS011;5217;43.960;10.954;2023-05-19T13:35:21;1.95;;;1.10;;
10343;SDS011;5217;43.960;10.954;2023-05-19T13:37:50;1.25;;;1.10;;
10343;SDS011;5217;43.960;10.954;2023-05-19T13:40:18;0.80;;;0.80;;
10343;SDS011;5217;43.960;10.954;2023-05-19T13:42:49;3.08;;;1.10;;
10343;SDS011;5217;43.960;10.954;2023-05-19T13:45:17;0.93;;;0.93;;
10343;SDS011;5217;43.960;10.954;2023-05-19T13:47:47;1.10;;;0.98;;
10343;SDS011;5217;43.960;10.954;2023-05-19T13:50:16;0.90;;;0.90;;
10343;SDS011;5217;43.960;10.954;2023-05-19T13:52:45;0.90;;;0.90;;
10343;SDS011;5217;43.960;10.954;2023-05-19T13:55:13;0.85;;;0.82;;
10343;SDS011;5217;43.960;10.954;2023-05-19T13:57:42;4.28;;;1.02;;
10343;SDS011;5217;43.960;10.954;2023-05-19T14:00:12;0.88;;;0.88;;
10343;SDS011;5217;43.960;10.954;2023-05-19T14:02:41;2.45;;;1.00;;
10343;SDS011;5217;43.960;10.954;2023-05-19T14:05:11;1.30;;;1.20;;
10343;SDS011;5217;43.960;10.954;2023-05-19T14:07:39;1.02;;;0.93;;
10343;SDS011;5217;43.960;10.954;2023-05-19T14:10:08;1.30;;;1.20;;
10343;SDS011;5217;43.960;10.954;2023-05-19T14:12:37;1.45;;;1.20;;
10343;SDS011;5217;43.960;10.954;2023-05-19T14:15:25;1.13;;;1.10;;
10343;SDS011;5217;43.960;10.954;2023-05-19T14:17:54;1.38;;;1.10;;
10343;SDS011;5217;43.960;10.954;2023-05-19T14:20:25;1.13;;;1.13;;
10343;SDS011;5217;43.960;10.954;2023-05-19T14:22:54;1.13;;;1.02;;
10343;SDS011;5217;43.960;10.954;2023-05-19T14:25:23;1.20;;;1.10;;
10343;SDS011;5217;43.960;10.954;2023-05-19T14:27:51;1.10;;;1.00;;
10343;SDS011;5217;43.960;10.954;2023-05-19T14:30:20;1.00;;;0.90;;
10343;SDS011;5217;43.960;10.954;2023-05-19T14:32:48;0.85;;;0.85;;
10343;SDS011;5217;43.960;10.954;2023-05-19T14:35:17;0.80;;;0.80;;
10343;SDS011;5217;43.960;10.954;2023-05-19T14:37:47;1.08;;;1.00;;
10343;SDS011;5217;43.960;10.954;2023-05-19T14:40:16;2.67;;;1.30;;
10343;SDS011;5217;43.960;10.954;2023-05-19T14:42:45;1.27;;;1.10;;
10343;SDS011;5217;43.960;10.954;2023-05-19T14:45:14;1.40;;;1.30;;
10343;SDS011;5217;43.960;10.954;2023-05-19T14:47:42;1.50;;;1.27;;
10343;SDS011;5217;43.960;10.954;2023-05-19T14:50:13;1.73;;;1.20;;
10343;SDS011;5217;43.960;10.954;2023-05-19T14:52:41;1.05;;;1.05;;
10343;SDS011;5217;43.960;10.954;2023-05-19T14:55:11;0.90;;;0.90;;
10343;SDS011;5217;43.960;10.954;2023-05-19T14:57:39;1.77;;;1.00;;
10343;SDS011;5217;43.960;10.954;2023-05-19T15:00:08;1.30;;;1.10;;
10343;SDS011;5217;43.960;10.954;2023-05-19T15:02:37;1.70;;;1.17;;
10343;SDS011;5217;43.960;10.954;2023-05-19T15:05:06;2.25;;;1.10;;
10343;SDS011;5217;43.960;10.954;2023-05-19T15:07:35;1.35;;;1.00;;
10343;SDS011;5217;43.960;10.954;2023-05-19T15:10:04;1.10;;;1.00;;